createdAt,value
2023-04-15T00:00:58.394Z,100249.00
2023-04-15T00:03:25.388Z,100248.06
2023-04-15T00:05:52.267Z,100249.41
2023-04-15T00:08:19.459Z,100244.06
2023-04-15T00:10:46.756Z,100246.06
2023-04-15T00:13:13.378Z,100245.88
2023-04-15T00:15:39.854Z,100249.75
2023-04-15T00:18:07.412Z,100247.47
2023-04-15T00:20:34.308Z,100242.31
2023-04-15T00:23:02.568Z,100239.03
2023-04-15T00:25:29.282Z,100242.16
2023-04-15T00:27:55.682Z,100233.47
2023-04-15T00:30:22.190Z,100235.03
2023-04-15T00:32:49.537Z,100238.69
2023-04-15T00:35:16.543Z,100240.94
2023-04-15T00:37:45.482Z,100250.56
2023-04-15T00:40:14.111Z,100249.94
2023-04-15T00:42:40.894Z,100250.13
2023-04-15T00:45:08.852Z,100250.50
2023-04-15T00:47:37.697Z,100252.97
2023-04-15T00:50:05.024Z,100239.69
2023-04-15T00:52:32.040Z,100239.97
2023-04-15T00:54:59.466Z,100249.38
2023-04-15T00:57:26.144Z,100242.50
2023-04-15T00:59:53.833Z,100242.94
2023-04-15T01:02:20.789Z,100239.22
2023-04-15T01:04:47.590Z,100242.91
2023-04-15T01:07:14.177Z,100244.94
2023-04-15T01:09:41.434Z,100244.63
2023-04-15T01:12:12.041Z,100242.19
2023-04-15T01:14:38.675Z,100243.88
2023-04-15T01:17:05.099Z,100237.34
2023-04-15T01:19:31.622Z,100237.88
2023-04-15T01:21:58.163Z,100233.22
2023-04-15T01:24:28.183Z,100238.72
2023-04-15T01:26:54.836Z,100233.78
2023-04-15T01:29:21.582Z,100234.19
2023-04-15T01:31:52.442Z,100234.41
2023-04-15T01:34:19.396Z,100238.94
2023-04-15T01:36:46.257Z,100234.28
2023-04-15T01:39:13.426Z,100239.56
2023-04-15T01:41:40.805Z,100240.25
2023-04-15T01:44:08.044Z,100241.63
2023-04-15T01:46:34.976Z,100238.69
2023-04-15T01:49:01.749Z,100233.50
2023-04-15T01:51:28.405Z,100239.53
2023-04-15T01:53:56.872Z,100237.91
2023-04-15T01:56:26.649Z,100237.06
2023-04-15T01:58:53.345Z,100232.69
2023-04-15T02:01:20.094Z,100233.00
2023-04-15T02:03:47.740Z,100237.41
2023-04-15T02:06:14.462Z,100236.63
2023-04-15T02:08:40.995Z,100241.84
2023-04-15T02:11:07.574Z,100244.16
2023-04-15T02:13:34.086Z,100244.78
2023-04-15T02:16:00.542Z,100253.13
2023-04-15T02:18:27.246Z,100242.03
2023-04-15T02:20:53.702Z,100247.09
2023-04-15T02:23:20.420Z,100252.78
2023-04-15T02:25:53.792Z,100249.38
2023-04-15T02:28:21.115Z,100251.00
2023-04-15T02:30:52.764Z,100256.88
2023-04-15T02:33:20.130Z,100261.13
2023-04-15T02:35:46.648Z,100257.53
2023-04-15T02:38:14.237Z,100260.00
2023-04-15T02:40:40.942Z,100267.81
2023-04-15T02:43:07.693Z,100267.63
2023-04-15T02:45:34.284Z,100269.13
2023-04-15T02:48:06.016Z,100268.16
2023-04-15T02:50:32.588Z,100272.56
2023-04-15T02:53:01.091Z,100273.56
2023-04-15T02:55:27.772Z,100275.81
2023-04-15T02:57:54.243Z,100269.94
2023-04-15T03:00:20.644Z,100281.81
2023-04-15T03:02:47.368Z,100279.75
2023-04-15T03:05:14.749Z,100281.03
2023-04-15T03:07:41.149Z,100280.50
2023-04-15T03:10:08.337Z,100293.09
2023-04-15T03:12:34.697Z,100285.44
2023-04-15T03:15:02.083Z,100284.28
2023-04-15T03:17:28.518Z,100286.88
2023-04-15T03:19:54.956Z,100286.03
2023-04-15T03:22:21.347Z,100272.34
2023-04-15T03:24:47.872Z,100286.63
2023-04-15T03:27:14.305Z,100292.34
2023-04-15T03:29:41.106Z,100287.94
2023-04-15T03:32:07.540Z,100289.97
2023-04-15T03:34:33.919Z,100291.50
2023-04-15T03:37:00.521Z,100292.13
2023-04-15T03:39:27.243Z,100299.34
2023-04-15T03:41:53.646Z,100296.84
2023-04-15T03:44:20.030Z,100301.50
2023-04-15T03:46:46.557Z,100303.34
2023-04-15T03:49:14.008Z,100301.38
2023-04-15T03:51:40.691Z,100308.03
2023-04-15T03:54:07.120Z,100308.13
2023-04-15T03:56:33.545Z,100314.16
2023-04-15T03:59:00.145Z,100319.13
2023-04-15T04:01:26.813Z,100319.03
2023-04-15T04:03:53.424Z,100318.31
2023-04-15T04:06:20.085Z,100322.97
2023-04-15T04:08:46.497Z,100332.78
2023-04-15T04:11:13.316Z,100325.38
2023-04-15T04:13:40.546Z,100322.38
2023-04-15T04:16:07.156Z,100320.63
2023-04-15T04:18:33.658Z,100325.16
2023-04-15T04:21:00.550Z,100316.16
2023-04-15T04:23:27.030Z,100319.56
2023-04-15T04:25:53.546Z,100328.41
2023-04-15T04:28:19.981Z,100323.00
2023-04-15T04:30:46.408Z,100317.63
2023-04-15T04:33:13.025Z,100326.38
2023-04-15T04:35:39.533Z,100332.19
2023-04-15T04:38:05.953Z,100332.84
2023-04-15T04:40:32.420Z,100337.41
2023-04-15T04:42:58.866Z,100338.75
2023-04-15T04:45:25.235Z,100337.63
2023-04-15T04:47:51.674Z,100343.66
2023-04-15T04:50:18.133Z,100348.25
2023-04-15T04:52:44.560Z,100343.09
2023-04-15T04:55:11.028Z,100348.00
2023-04-15T04:57:39.381Z,100354.75
2023-04-15T05:00:08.515Z,100352.56
2023-04-15T05:02:35.417Z,100358.94
2023-04-15T05:05:01.986Z,100358.44
2023-04-15T05:07:28.475Z,100355.56
2023-04-15T05:09:54.891Z,100361.75
2023-04-15T05:12:21.580Z,100357.03
2023-04-15T05:14:47.984Z,100364.22
2023-04-15T05:17:14.470Z,100365.53
2023-04-15T05:19:41.089Z,100369.91
2023-04-15T05:22:07.880Z,100369.72
2023-04-15T05:24:34.266Z,100366.66
2023-04-15T05:27:02.512Z,100371.25
2023-04-15T05:29:28.928Z,100370.19
2023-04-15T05:31:55.917Z,100377.53
2023-04-15T05:34:23.030Z,100374.09
2023-04-15T05:36:49.473Z,100382.03
2023-04-15T05:39:16.145Z,100386.81
2023-04-15T05:41:42.520Z,100391.22
2023-04-15T05:44:08.929Z,100383.44
2023-04-15T05:46:35.463Z,100386.75
2023-04-15T05:49:05.291Z,100393.31
2023-04-15T05:51:31.728Z,100396.94
2023-04-15T05:53:58.106Z,100395.59
2023-04-15T05:56:26.742Z,100396.97
2023-04-15T05:58:53.915Z,100398.56
2023-04-15T06:01:20.680Z,100404.22
2023-04-15T06:03:47.269Z,100407.88
2023-04-15T06:06:14.311Z,100406.50
2023-04-15T06:08:40.998Z,100411.66
2023-04-15T06:11:07.433Z,100418.13
2023-04-15T06:13:34.889Z,100425.75
2023-04-15T06:16:01.614Z,100423.91
2023-04-15T06:18:28.073Z,100432.16
2023-04-15T06:20:54.625Z,100433.91
2023-04-15T06:23:21.098Z,100437.63
2023-04-15T06:25:47.528Z,100444.81
2023-04-15T06:28:13.967Z,100445.06
2023-04-15T06:30:40.406Z,100443.53
2023-04-15T06:33:07.411Z,100447.19
2023-04-15T06:35:33.950Z,100450.72
2023-04-15T06:38:00.308Z,100454.28
2023-04-15T06:40:26.927Z,100458.53
2023-04-15T06:42:53.356Z,100457.81
2023-04-15T06:45:19.801Z,100464.06
2023-04-15T06:47:46.583Z,100472.66
2023-04-15T06:50:13.495Z,100465.97
2023-04-15T06:52:40.896Z,100465.06
2023-04-15T06:55:07.960Z,100471.38
2023-04-15T06:57:35.182Z,100470.88
2023-04-15T07:00:01.951Z,100472.03
2023-04-15T07:02:28.437Z,100466.16
2023-04-15T07:04:55.527Z,100469.09
2023-04-15T07:07:22.131Z,100467.53
2023-04-15T07:09:48.592Z,100473.53
2023-04-15T07:12:15.244Z,100483.03
2023-04-15T07:14:41.720Z,100490.16
2023-04-15T07:17:09.439Z,100493.94
2023-04-15T07:19:35.967Z,100494.16
2023-04-15T07:22:02.330Z,100496.19
2023-04-15T07:24:28.940Z,100505.88
2023-04-15T07:26:59.579Z,100505.47
2023-04-15T07:29:27.372Z,100510.56
2023-04-15T07:31:53.765Z,100514.81
2023-04-15T07:34:20.835Z,100516.56
2023-04-15T07:36:50.498Z,100527.69
2023-04-15T07:39:16.992Z,100525.66
2023-04-15T07:41:43.438Z,100518.00
2023-04-15T07:44:09.916Z,100524.91
2023-04-15T07:46:37.306Z,100524.72
2023-04-15T07:49:04.502Z,100531.34
2023-04-15T07:51:32.397Z,100539.41
2023-04-15T07:53:59.219Z,100541.97
2023-04-15T07:56:26.429Z,100539.25
2023-04-15T07:58:53.299Z,100543.53
2023-04-15T08:01:19.839Z,100543.69
2023-04-15T08:03:46.574Z,100544.53
2023-04-15T08:06:13.149Z,100550.22
2023-04-15T08:08:39.590Z,100549.16
2023-04-15T08:11:06.263Z,100556.19
2023-04-15T08:13:32.719Z,100563.78
2023-04-15T08:16:19.233Z,100572.25
2023-04-15T08:18:49.596Z,100571.69
2023-04-15T08:21:17.756Z,100572.47
2023-04-15T08:23:45.591Z,100572.97
2023-04-15T08:26:12.776Z,100566.75
2023-04-15T08:28:40.991Z,100569.97
2023-04-15T08:31:08.583Z,100578.56
2023-04-15T08:33:35.444Z,100577.22
2023-04-15T08:36:01.844Z,100581.09
2023-04-15T08:38:28.376Z,100587.75
2023-04-15T08:40:56.981Z,100591.66
2023-04-15T08:43:28.547Z,100591.47
2023-04-15T08:45:55.762Z,100600.13
2023-04-15T08:48:24.503Z,100595.97
2023-04-15T08:50:51.242Z,100599.63
2023-04-15T08:53:18.204Z,100600.63
2023-04-15T08:55:46.092Z,100597.69
2023-04-15T08:58:14.110Z,100596.75
2023-04-15T09:00:41.235Z,100602.03
2023-04-15T09:03:08.954Z,100600.28
2023-04-15T09:05:36.642Z,100597.72
2023-04-15T09:08:04.019Z,100604.69
2023-04-15T09:10:31.091Z,100600.72
2023-04-15T09:12:57.771Z,100598.63
2023-04-15T09:15:29.889Z,100605.81
2023-04-15T09:17:56.885Z,100604.53
2023-04-15T09:20:23.813Z,100608.84
2023-04-15T09:22:51.911Z,100612.34
2023-04-15T09:25:24.785Z,100608.06
2023-04-15T09:27:53.357Z,100610.72
2023-04-15T09:30:20.102Z,100618.47
2023-04-15T09:33:00.919Z,100609.63
2023-04-15T09:35:28.132Z,100618.50
2023-04-15T09:38:03.765Z,100615.72
2023-04-15T09:40:38.231Z,100623.19
2023-04-15T09:43:06.119Z,100633.91
2023-04-15T09:45:34.207Z,100629.28
2023-04-15T09:48:17.440Z,100633.06
2023-04-15T09:50:44.479Z,100635.34
2023-04-15T09:53:12.422Z,100637.00
2023-04-15T09:55:38.845Z,100638.38
2023-04-15T09:58:19.411Z,100638.16
2023-04-15T10:00:51.033Z,100648.16
2023-04-15T10:03:21.745Z,100654.00
2023-04-15T10:05:52.794Z,100651.69
2023-04-15T10:08:21.713Z,100649.72
2023-04-15T10:10:48.957Z,100658.28
2023-04-15T10:13:24.440Z,100665.44
2023-04-15T10:15:59.303Z,100662.91
2023-04-15T10:18:27.166Z,100667.63
2023-04-15T10:20:54.479Z,100668.34
2023-04-15T10:23:22.533Z,100673.97
2023-04-15T10:25:51.677Z,100663.75
2023-04-15T10:28:18.439Z,100670.81
2023-04-15T10:30:45.132Z,100669.25
2023-04-15T10:33:12.633Z,100668.38
2023-04-15T10:35:39.702Z,100675.00
2023-04-15T10:38:35.114Z,100680.75
2023-04-15T10:41:22.095Z,100681.53
2023-04-15T10:43:51.197Z,100688.53
2023-04-15T10:46:23.745Z,100686.34
2023-04-15T10:48:53.967Z,100688.84
2023-04-15T10:51:29.279Z,100699.47
2023-04-15T10:54:02.184Z,100692.56
2023-04-15T10:56:30.336Z,100692.13
2023-04-15T10:58:59.199Z,100691.94
2023-04-15T11:01:53.174Z,100699.28
2023-04-15T11:04:55.647Z,100702.53
2023-04-15T11:07:40.494Z,100706.69
2023-04-15T11:10:29.669Z,100706.66
2023-04-15T11:13:27.221Z,100699.59
2023-04-15T11:15:58.279Z,100701.63
2023-04-15T11:18:28.051Z,100704.56
2023-04-15T11:20:57.277Z,100703.31
2023-04-15T11:23:38.745Z,100715.94
2023-04-15T11:26:09.863Z,100711.88
2023-04-15T11:28:38.786Z,100719.63
2023-04-15T11:31:27.741Z,100712.84
2023-04-15T11:33:57.193Z,100724.16
2023-04-15T11:36:27.781Z,100721.25
2023-04-15T11:38:54.388Z,100727.31
2023-04-15T11:41:22.263Z,100727.44
2023-04-15T11:43:49.356Z,100733.09
2023-04-15T11:46:16.211Z,100740.38
2023-04-15T11:48:44.943Z,100740.63
2023-04-15T11:51:12.881Z,100746.22
2023-04-15T11:53:39.301Z,100744.03
2023-04-15T11:56:06.916Z,100739.38
2023-04-15T11:58:37.834Z,100746.88
2023-04-15T12:01:06.017Z,100750.22
2023-04-15T12:03:41.096Z,100751.81
2023-04-15T12:06:16.657Z,100752.13
2023-04-15T12:08:55.764Z,100766.94
2023-04-15T12:11:31.220Z,100767.28
2023-04-15T12:14:05.910Z,100764.16
2023-04-15T12:16:35.245Z,100773.13
2023-04-15T12:19:10.974Z,100777.66
2023-04-15T12:21:40.155Z,100782.94
2023-04-15T12:24:09.395Z,100785.97
2023-04-15T12:26:45.871Z,100791.41
2023-04-15T12:29:13.793Z,100785.91
2023-04-15T12:31:55.986Z,100797.81
2023-04-15T12:34:36.774Z,100800.41
2023-04-15T12:37:05.088Z,100809.56
2023-04-15T12:39:35.064Z,100807.44
2023-04-15T12:42:01.559Z,100804.03
2023-04-15T12:44:28.618Z,100828.00
2023-04-15T12:46:55.696Z,100827.94
2023-04-15T12:49:23.719Z,100827.22
2023-04-15T12:51:52.232Z,100825.47
2023-04-15T12:54:19.124Z,100827.28
2023-04-15T12:56:46.755Z,100837.56
2023-04-15T12:59:14.178Z,100836.25
2023-04-15T13:01:41.563Z,100840.75
2023-04-15T13:04:08.867Z,100842.13
2023-04-15T13:06:36.466Z,100843.38
2023-04-15T13:09:05.649Z,100855.19
2023-04-15T13:11:36.632Z,100856.84
2023-04-15T13:14:08.612Z,100856.00
2023-04-15T13:16:36.057Z,100867.13
2023-04-15T13:19:04.221Z,100867.25
2023-04-15T13:21:35.241Z,100873.13
2023-04-15T13:24:03.151Z,100877.41
2023-04-15T13:26:29.956Z,100878.84
2023-04-15T13:28:56.802Z,100875.09
2023-04-15T13:31:23.469Z,100875.25
2023-04-15T13:33:50.349Z,100885.94
2023-04-15T13:36:17.111Z,100886.97
2023-04-15T13:38:43.500Z,100878.50
2023-04-15T13:41:10.043Z,100887.69
2023-04-15T13:43:36.611Z,100891.22
2023-04-15T13:46:03.357Z,100894.91
2023-04-15T13:48:29.927Z,100896.75
2023-04-15T13:50:56.522Z,100901.56
2023-04-15T13:53:33.912Z,100902.59
2023-04-15T13:56:07.049Z,100900.03
2023-04-15T13:58:33.498Z,100909.50
2023-04-15T14:01:00.066Z,100908.09
2023-04-15T14:03:26.658Z,100919.09
2023-04-15T14:05:55.982Z,100918.19
2023-04-15T14:08:23.371Z,100913.72
2023-04-15T14:10:49.842Z,100914.25
2023-04-15T14:13:16.326Z,100920.28
2023-04-15T14:15:42.698Z,100926.34
2023-04-15T14:18:09.104Z,100916.84
2023-04-15T14:20:35.522Z,100930.16
2023-04-15T14:23:02.079Z,100926.81
2023-04-15T14:25:33.789Z,100927.97
2023-04-15T14:28:01.264Z,100929.59
2023-04-15T14:30:27.707Z,100932.09
2023-04-15T14:32:54.205Z,100939.38
2023-04-15T14:35:20.846Z,100932.44
2023-04-15T14:37:47.281Z,100939.13
2023-04-15T14:40:13.717Z,100937.44
2023-04-15T14:42:40.099Z,100949.06
2023-04-15T14:45:07.002Z,100944.25
2023-04-15T14:47:33.423Z,100950.72
2023-04-15T14:49:59.813Z,100963.91
2023-04-15T14:52:26.221Z,100965.00
2023-04-15T14:54:52.707Z,100967.44
2023-04-15T14:57:19.137Z,100967.38
2023-04-15T14:59:45.645Z,100972.13
2023-04-15T15:02:15.022Z,100974.03
2023-04-15T15:04:47.750Z,100972.56
2023-04-15T15:07:14.255Z,100976.22
2023-04-15T15:09:41.484Z,100978.75
2023-04-15T15:12:07.948Z,100985.94
2023-04-15T15:14:34.334Z,100989.38
2023-04-15T15:17:00.971Z,100992.84
2023-04-15T15:19:27.411Z,100993.00
2023-04-15T15:21:53.822Z,101006.56
2023-04-15T15:24:20.296Z,101006.25
2023-04-15T15:26:46.768Z,101006.34
2023-04-15T15:29:13.233Z,101009.91
2023-04-15T15:31:39.668Z,101008.34
2023-04-15T15:34:06.166Z,101018.88
2023-04-15T15:36:32.649Z,101010.50
2023-04-15T15:38:59.826Z,101020.41
2023-04-15T15:41:26.426Z,101020.31
2023-04-15T15:43:55.924Z,101020.34
2023-04-15T15:46:24.202Z,101024.69
2023-04-15T15:48:50.821Z,101026.16
2023-04-15T15:51:17.319Z,101031.59
2023-04-15T15:53:44.761Z,101033.09
2023-04-15T15:56:11.346Z,101033.63
2023-04-15T15:58:45.013Z,101029.59
2023-04-15T16:01:11.790Z,101037.31
2023-04-15T16:03:38.402Z,101038.63
2023-04-15T16:06:05.353Z,101045.28
2023-04-15T16:08:31.766Z,101040.16
2023-04-15T16:10:58.258Z,101047.41
2023-04-15T16:13:24.779Z,101048.44
2023-04-15T16:15:51.160Z,101049.09
2023-04-15T16:18:18.150Z,101050.75
2023-04-15T16:20:44.760Z,101054.53
2023-04-15T16:23:16.364Z,101060.38
2023-04-15T16:25:44.448Z,101058.56
2023-04-15T16:28:25.180Z,101064.88
2023-04-15T16:30:52.564Z,101064.41
2023-04-15T16:33:19.084Z,101068.38
2023-04-15T16:35:45.495Z,101070.97
2023-04-15T16:38:11.861Z,101072.00
2023-04-15T16:40:38.400Z,101094.69
2023-04-15T16:43:07.231Z,101086.50
2023-04-15T16:45:33.769Z,101093.06
2023-04-15T16:48:00.375Z,101099.00
2023-04-15T16:50:27.173Z,101097.34
2023-04-15T16:52:54.070Z,101098.66
2023-04-15T16:55:20.495Z,101092.78
2023-04-15T16:58:02.670Z,101097.88
2023-04-15T17:00:31.402Z,101103.31
2023-04-15T17:02:58.626Z,101103.16
2023-04-15T17:05:27.174Z,101103.16
2023-04-15T17:07:53.589Z,101107.91
2023-04-15T17:10:19.942Z,101106.28
2023-04-15T17:12:46.348Z,101109.56
2023-04-15T17:15:12.730Z,101118.47
2023-04-15T17:17:39.219Z,101113.53
2023-04-15T17:20:06.194Z,101115.88
2023-04-15T17:22:33.521Z,101121.63
2023-04-15T17:24:59.943Z,101131.66
2023-04-15T17:27:28.679Z,101120.31
2023-04-15T17:29:55.006Z,101134.28
2023-04-15T17:32:22.574Z,101136.09
2023-04-15T17:34:51.429Z,101132.97
2023-04-15T17:37:18.612Z,101142.69
2023-04-15T17:39:45.377Z,101149.13
2023-04-15T17:42:11.904Z,101158.00
2023-04-15T17:44:38.337Z,101150.28
2023-04-15T17:47:04.805Z,101156.03
2023-04-15T17:49:32.590Z,101150.97
2023-04-15T17:51:58.970Z,101163.94
2023-04-15T17:54:25.377Z,101159.00
2023-04-15T17:56:51.853Z,101167.88
2023-04-15T17:59:18.422Z,101161.78
2023-04-15T18:01:45.493Z,101171.50
2023-04-15T18:04:12.601Z,101166.22
2023-04-15T18:06:39.264Z,101182.16
2023-04-15T18:09:06.588Z,101192.19
2023-04-15T18:11:33.426Z,101182.31
2023-04-15T18:13:59.873Z,101186.25
2023-04-15T18:16:26.519Z,101196.28
2023-04-15T18:18:53.967Z,101199.72
2023-04-15T18:21:20.568Z,101200.53
2023-04-15T18:23:47.009Z,101205.94
2023-04-15T18:26:13.446Z,101200.34
2023-04-15T18:28:39.977Z,101212.34
2023-04-15T18:31:06.605Z,101213.66
2023-04-15T18:33:33.018Z,101220.00
2023-04-15T18:35:59.495Z,101217.72
2023-04-15T18:38:26.028Z,101231.88
2023-04-15T18:40:52.395Z,101233.19
2023-04-15T18:43:18.848Z,101238.44
2023-04-15T18:45:45.430Z,101239.91
2023-04-15T18:48:12.300Z,101236.94
2023-04-15T18:50:38.670Z,101246.25
2023-04-15T18:53:05.013Z,101246.59
2023-04-15T18:55:31.534Z,101248.88
2023-04-15T18:58:06.319Z,101258.72
2023-04-15T19:00:38.869Z,101260.88
2023-04-15T19:03:06.163Z,101264.66
2023-04-15T19:05:32.973Z,101266.13
2023-04-15T19:07:59.820Z,101269.69
2023-04-15T19:10:27.985Z,101268.09
2023-04-15T19:12:55.103Z,101277.78
2023-04-15T19:15:21.592Z,101280.91
2023-04-15T19:17:48.206Z,101284.03
2023-04-15T19:20:14.653Z,101277.94
2023-04-15T19:22:41.624Z,101279.44
2023-04-15T19:25:08.426Z,101285.50
2023-04-15T19:27:34.844Z,101296.66
2023-04-15T19:30:01.904Z,101299.59
2023-04-15T19:32:28.446Z,101300.41
2023-04-15T19:34:54.892Z,101311.22
2023-04-15T19:37:21.306Z,101311.53
2023-04-15T19:39:47.771Z,101307.00
2023-04-15T19:42:14.471Z,101313.19
2023-04-15T19:44:42.873Z,101311.22
2023-04-15T19:47:10.510Z,101310.25
2023-04-15T19:49:37.768Z,101320.03
2023-04-15T19:52:04.743Z,101313.16
2023-04-15T19:54:32.241Z,101327.97
2023-04-15T19:56:58.999Z,101322.53
2023-04-15T19:59:25.791Z,101325.63
2023-04-15T20:01:52.826Z,101328.25
2023-04-15T20:04:19.479Z,101335.38
2023-04-15T20:06:46.061Z,101333.13
2023-04-15T20:09:12.579Z,101332.47
2023-04-15T20:12:45.606Z,101341.38
2023-04-15T20:14:25.569Z,101339.03
2023-04-15T20:16:51.994Z,101343.38
2023-04-15T20:19:18.354Z,101344.34
2023-04-15T20:21:45.330Z,101344.09
2023-04-15T20:24:11.763Z,101343.78
2023-04-15T20:26:38.188Z,101341.22
2023-04-15T20:29:04.974Z,101345.63
2023-04-15T20:31:31.861Z,101347.75
2023-04-15T20:33:58.243Z,101348.94
2023-04-15T20:36:24.673Z,101348.13
2023-04-15T20:38:51.040Z,101353.06
2023-04-15T20:41:17.422Z,101341.88
2023-04-15T20:43:43.774Z,101347.09
2023-04-15T20:46:20.530Z,101350.22
2023-04-15T20:48:47.705Z,101345.59
2023-04-15T20:51:15.119Z,101345.28
2023-04-15T20:53:42.024Z,101348.06
2023-04-15T20:56:08.479Z,101351.72
2023-04-15T20:58:34.920Z,101354.19
2023-04-15T21:01:02.159Z,101352.34
2023-04-15T21:03:28.843Z,101348.13
2023-04-15T21:05:55.647Z,101350.09
2023-04-15T21:08:29.012Z,101348.72
2023-04-15T21:10:56.697Z,101355.25
2023-04-15T21:13:23.684Z,101350.88
2023-04-15T21:15:53.303Z,101359.84
2023-04-15T21:18:22.970Z,101359.00
2023-04-15T21:20:58.229Z,101363.59
2023-04-15T21:23:25.737Z,101360.22
2023-04-15T21:25:52.108Z,101366.75
2023-04-15T21:28:18.510Z,101370.91
2023-04-15T21:30:45.794Z,101369.13
2023-04-15T21:33:12.170Z,101375.66
2023-04-15T21:35:38.674Z,101377.66
2023-04-15T21:38:05.066Z,101380.28
2023-04-15T21:40:31.561Z,101389.81
2023-04-15T21:42:58.270Z,101387.88
2023-04-15T21:45:24.683Z,101391.34
2023-04-15T21:48:05.331Z,101392.84
2023-04-15T21:50:36.444Z,101390.78
2023-04-15T21:53:03.666Z,101396.41
2023-04-15T21:55:30.118Z,101400.72
2023-04-15T21:57:56.596Z,101403.34
2023-04-15T22:00:23.057Z,101404.28
2023-04-15T22:02:49.836Z,101411.38
2023-04-15T22:05:16.681Z,101414.50
2023-04-15T22:07:43.784Z,101414.13
2023-04-15T22:10:10.666Z,101414.66
2023-04-15T22:12:37.108Z,101419.09
2023-04-15T22:15:04.597Z,101426.13
2023-04-15T22:17:31.367Z,101414.34
2023-04-15T22:19:57.742Z,101425.28
2023-04-15T22:22:26.803Z,101424.38
2023-04-15T22:25:10.197Z,101422.38
2023-04-15T22:27:36.556Z,101425.53
2023-04-15T22:30:03.160Z,101420.41
2023-04-15T22:32:29.653Z,101431.00
2023-04-15T22:34:56.169Z,101433.53
2023-04-15T22:37:22.541Z,101433.19
2023-04-15T22:39:48.878Z,101433.63
2023-04-15T22:42:15.643Z,101442.41
2023-04-15T22:44:42.065Z,101438.94
2023-04-15T22:47:08.472Z,101439.84
2023-04-15T22:49:36.088Z,101447.53
2023-04-15T22:52:02.563Z,101452.75
2023-04-15T22:54:28.922Z,101446.00
2023-04-15T22:56:56.367Z,101444.19
2023-04-15T22:59:22.868Z,101447.88
2023-04-15T23:01:49.466Z,101446.53
2023-04-15T23:04:25.654Z,101450.94
2023-04-15T23:06:54.255Z,101447.72
2023-04-15T23:09:21.039Z,101457.38
2023-04-15T23:11:47.588Z,101457.09
2023-04-15T23:14:13.955Z,101453.63
2023-04-15T23:16:40.529Z,101457.59
2023-04-15T23:19:07.141Z,101451.56
2023-04-15T23:21:33.795Z,101457.31
2023-04-15T23:24:00.250Z,101460.91
2023-04-15T23:26:27.318Z,101457.59
2023-04-15T23:28:53.694Z,101468.41
2023-04-15T23:31:20.059Z,101471.72
2023-04-15T23:33:46.547Z,101465.19
2023-04-15T23:36:12.968Z,101475.31
2023-04-15T23:38:39.281Z,101472.69
2023-04-15T23:41:05.692Z,101481.09
2023-04-15T23:43:32.026Z,101475.84
2023-04-15T23:45:58.388Z,101478.91
2023-04-15T23:48:24.853Z,101479.81
2023-04-15T23:50:51.230Z,101471.72
2023-04-15T23:53:17.678Z,101482.22
2023-04-15T23:55:44.149Z,101482.88
2023-04-15T23:58:10.772Z,101481.53
